Time;durP1;ratioP1;P1;durP2;ratioP2;P2;SDS_P1;SDS_P2;PMS_P1;PMS_P2;Temp;Humidity;BMP_temperature;BMP_pressure;BME280_temperature;BME280_humidity;BME280_pressure;Samples;Min_cycle;Max_cycle;Signal;HPM_P1;HPM_P2
2022/06/21 00:00:36;;;;;;;5.82;3.50;;;;;;;15.26;60.31;101630.81;5056025;28;20064;-60
2022/06/21 00:03:12;;;;;;;6.55;3.50;;;;;;;15.39;59.57;101636.19;5056623;28;20029;-61
2022/06/21 00:05:40;;;;;;;8.02;3.30;;;;;;;15.41;59.70;101637.06;5055996;28;20096;-61
2022/06/21 00:08:16;;;;;;;5.20;3.42;;;;;;;15.34;59.72;101633.50;5055763;28;20021;-60
2022/06/21 00:10:41;;;;;;;5.97;3.38;;;;;;;15.34;59.93;101621.97;5056117;28;20029;-61
2022/06/21 00:13:19;;;;;;;7.35;3.47;;;;;;;15.39;59.46;101631.75;5056040;28;20029;-61
2022/06/21 00:15:46;;;;;;;9.00;3.80;;;;;;;15.36;59.95;101633.50;5056018;28;20044;-61
2022/06/21 00:18:14;;;;;;;7.47;3.40;;;;;;;15.35;60.06;101637.06;5055780;28;20029;-60
2022/06/21 00:20:40;;;;;;;6.30;3.53;;;;;;;15.33;60.04;101634.41;5055714;28;20474;-61
2022/06/21 00:23:06;;;;;;;6.07;3.50;;;;;;;15.35;60.29;101632.63;5055458;28;20040;-61
2022/06/21 00:25:32;;;;;;;9.55;3.53;;;;;;;15.35;59.69;101629.94;5055849;28;20033;-60
2022/06/21 00:27:58;;;;;;;6.53;3.72;;;;;;;15.23;60.18;101632.56;5055599;28;20060;-61
2022/06/21 00:30:24;;;;;;;7.45;3.55;;;;;;;15.02;61.44;101639.56;5055593;28;20028;-61
2022/06/21 00:32:52;;;;;;;7.60;3.70;;;;;;;14.90;61.34;101628.88;5055788;28;20033;-61
2022/06/21 00:35:21;;;;;;;7.85;3.70;;;;;;;14.72;61.54;101629.63;5055421;28;20051;-61
2022/06/21 00:37:47;;;;;;;7.65;3.40;;;;;;;14.73;61.57;101625.19;5055256;28;20483;-61
2022/06/21 00:40:28;;;;;;;6.28;3.90;;;;;;;14.87;60.55;101625.31;5055427;28;20111;-61
2022/06/21 00:43:09;;;;;;;5.50;3.60;;;;;;;14.87;60.09;101634.16;5055428;28;20479;-62
2022/06/21 00:45:45;;;;;;;6.20;3.58;;;;;;;14.65;61.22;101637.59;5056197;28;20029;-61
2022/06/21 00:48:15;;;;;;;6.25;3.42;;;;;;;14.51;62.18;101634.81;5053661;28;20570;-61
2022/06/21 00:50:44;;;;;;;10.23;3.65;;;;;;;14.28;63.24;101632.84;5055835;28;20032;-61
2022/06/21 00:53:46;;;;;;;5.55;3.50;;;;;;;14.12;62.84;101638.00;5054733;28;20032;-60
2022/06/21 00:56:29;;;;;;;7.70;3.80;;;;;;;14.13;63.16;101632.72;5048316;28;20041;-61
2022/06/21 00:58:55;;;;;;;5.25;3.55;;;;;;;14.23;63.52;101620.38;5055124;28;20032;-61
2022/06/21 01:01:26;;;;;;;6.60;3.85;;;;;;;14.25;63.05;101616.84;5054991;28;20033;-61
2022/06/21 01:04:17;;;;;;;7.63;4.00;;;;;;;14.15;63.30;101627.41;5055112;28;20082;-61
2022/06/21 01:06:49;;;;;;;8.15;3.95;;;;;;;13.86;64.20;101625.38;5054708;28;20032;-61
2022/06/21 01:09:42;;;;;;;6.25;3.65;;;;;;;14.03;62.96;101614.91;5054710;28;20029;-60
2022/06/21 01:12:14;;;;;;;8.40;4.22;;;;;;;13.96;64.09;101608.66;5055032;28;20024;-61
2022/06/21 01:14:48;;;;;;;7.90;3.95;;;;;;;13.92;63.87;101608.63;5054990;28;20029;-61
2022/06/21 01:17:17;;;;;;;7.43;4.20;;;;;;;13.87;63.91;101599.69;5054919;28;20083;-61
2022/06/21 01:19:59;;;;;;;6.60;3.60;;;;;;;13.88;63.47;101597.06;5054517;28;20537;-61
2022/06/21 01:22:30;;;;;;;7.97;3.58;;;;;;;13.74;64.55;101588.94;5054820;28;20498;-61
2022/06/21 01:25:27;;;;;;;7.35;3.63;;;;;;;13.76;63.72;101587.19;5054597;28;20025;-60
2022/06/21 01:27:55;;;;;;;6.43;3.78;;;;;;;13.65;64.96;101591.50;5053509;28;20072;-61
2022/06/21 01:30:23;;;;;;;8.82;3.80;;;;;;;13.53;65.60;101589.66;5054430;28;20053;-61
2022/06/21 01:32:50;;;;;;;6.47;3.55;;;;;;;13.73;64.88;101589.81;5054474;28;20029;-61
2022/06/21 01:35:28;;;;;;;7.95;3.65;;;;;;;13.75;64.77;101592.50;5054399;28;20083;-61
2022/06/21 01:37:55;;;;;;;6.00;4.00;;;;;;;13.76;64.57;101595.16;5054284;28;20029;-61
2022/06/21 01:40:27;;;;;;;7.55;4.05;;;;;;;13.85;64.62;101590.81;5052935;28;20394;-61
2022/06/21 01:43:03;;;;;;;7.72;4.10;;;;;;;13.83;64.52;101592.56;5054229;28;20033;-61
2022/06/21 01:45:36;;;;;;;10.80;4.38;;;;;;;13.76;65.08;101594.28;5054162;28;20589;-61
2022/06/21 01:48:10;;;;;;;9.00;4.40;;;;;;;13.77;64.92;101593.41;5054027;28;20529;-61
2022/06/21 01:50:38;;;;;;;6.32;4.40;;;;;;;13.84;65.50;101587.28;5054062;28;20521;-61
2022/06/21 01:53:06;;;;;;;8.77;4.60;;;;;;;13.72;65.57;101596.00;5053989;28;20025;-61
2022/06/21 01:55:38;;;;;;;10.10;4.78;;;;;;;13.70;66.56;101597.78;5053911;28;20074;-60
2022/06/21 01:58:05;;;;;;;9.80;4.85;;;;;;;13.70;66.51;101589.81;5053792;28;20386;-61
2022/06/21 02:00:34;;;;;;;9.43;4.80;;;;;;;13.74;66.85;101582.75;5053812;28;20032;-62
2022/06/21 02:03:07;;;;;;;11.65;4.97;;;;;;;13.75;66.53;101588.09;5053686;28;20108;-60
2022/06/21 02:05:49;;;;;;;7.80;4.45;;;;;;;13.70;66.42;101584.50;5052887;28;20040;-62
2022/06/21 02:08:19;;;;;;;10.82;4.68;;;;;;;13.75;66.13;101574.81;5053762;28;20028;-61
2022/06/21 02:10:53;;;;;;;8.48;4.70;;;;;;;13.65;66.40;101574.69;5053552;28;20024;-61
2022/06/21 02:13:41;;;;;;;8.10;4.32;;;;;;;13.72;65.77;101584.50;5053968;28;20032;-61
2022/06/21 02:16:15;;;;;;;8.07;4.28;;;;;;;13.87;65.22;101576.66;5053798;28;20025;-62
2022/06/21 02:18:45;;;;;;;9.90;4.68;;;;;;;13.92;64.69;101580.28;5053848;28;20025;-61
2022/06/21 02:21:29;;;;;;;11.15;4.90;;;;;;;14.02;64.08;101579.47;5053649;28;20025;-61
2022/06/21 02:23:57;;;;;;;8.60;4.60;;;;;;;14.00;63.98;101565.28;5053627;28;20020;-61
2022/06/21 02:26:25;;;;;;;9.07;4.60;;;;;;;13.88;65.09;101554.56;5053347;28;20049;-61
2022/06/21 02:28:51;;;;;;;10.20;4.97;;;;;;;13.75;65.71;101564.19;5053105;28;20056;-61
2022/06/21 02:31:16;;;;;;;11.93;5.15;;;;;;;13.68;66.02;101561.44;5053432;28;20025;-61
2022/06/21 02:33:45;;;;;;;12.98;4.95;;;;;;;13.66;65.42;101552.56;5053306;28;20380;-61
2022/06/21 02:36:15;;;;;;;9.70;4.70;;;;;;;13.54;66.50;101534.75;5053090;28;20025;-61
2022/06/21 02:38:50;;;;;;;9.98;5.22;;;;;;;13.51;66.49;101526.75;5053367;28;20028;-62
2022/06/21 02:41:22;;;;;;;8.35;4.70;;;;;;;13.37;66.36;101526.63;5053519;28;20397;-61
2022/06/21 02:44:13;;;;;;;10.02;4.45;;;;;;;13.38;65.61;101528.41;5053527;28;20025;-61
2022/06/21 02:46:45;;;;;;;10.20;4.82;;;;;;;13.17;67.20;101531.69;5047310;28;20037;-61
2022/06/21 02:49:20;;;;;;;8.75;4.70;;;;;;;13.04;67.67;101546.56;5053142;28;20113;-61
2022/06/21 02:52:14;;;;;;;9.05;4.70;;;;;;;12.99;67.81;101544.75;5053378;28;20484;-61
2022/06/21 02:54:56;;;;;;;15.70;5.13;;;;;;;12.99;68.36;101542.09;5049523;28;20037;-61
2022/06/21 02:57:24;;;;;;;6.95;5.25;;;;;;;12.98;68.30;101553.59;5053048;28;20032;-61
2022/06/21 02:59:53;;;;;;;11.30;5.03;;;;;;;12.87;68.62;101556.09;5053040;28;20152;-61
2022/06/21 03:02:22;;;;;;;8.07;4.95;;;;;;;12.79;68.60;101569.25;5053280;28;20032;-61
2022/06/21 03:04:53;;;;;;;8.60;5.38;;;;;;;12.73;69.41;101571.81;5053033;28;20079;-61
2022/06/21 03:07:32;;;;;;;8.75;5.25;;;;;;;12.78;68.71;101580.72;5053232;28;20093;-61
2022/06/21 03:09:58;;;;;;;10.55;5.53;;;;;;;12.73;69.25;101571.81;5053015;28;20048;-61
2022/06/21 03:12:28;;;;;;;12.60;5.43;;;;;;;12.69;69.96;101577.97;5052968;28;20036;-61
2022/06/21 03:15:00;;;;;;;11.68;5.82;;;;;;;12.86;69.09;101570.22;5052915;28;20085;-61
2022/06/21 03:17:52;;;;;;;11.82;5.65;;;;;;;12.97;68.36;101557.97;5057012;28;20036;-61
2022/06/21 03:20:20;;;;;;;12.63;5.47;;;;;;;13.00;68.25;101565.09;5056721;28;20055;-62
2022/06/21 03:22:48;;;;;;;9.25;5.30;;;;;;;12.97;67.64;101565.94;5056791;28;20548;-61
2022/06/21 03:25:21;;;;;;;9.50;5.07;;;;;;;13.00;66.75;101563.31;5055470;28;20394;-62
2022/06/21 03:27:56;;;;;;;10.77;5.22;;;;;;;13.04;66.20;101567.78;5056838;28;20049;-61
2022/06/21 03:30:25;;;;;;;10.20;4.90;;;;;;;13.08;66.61;101567.84;5056902;28;20025;-61
2022/06/21 03:32:54;;;;;;;9.80;5.47;;;;;;;13.02;66.72;101564.25;5056797;28;20029;-61
2022/06/21 03:35:20;;;;;;;9.10;5.10;;;;;;;12.95;67.70;101562.38;5056993;28;20029;-61
2022/06/21 03:37:46;;;;;;;10.68;5.28;;;;;;;12.82;67.23;101568.41;5056792;28;20047;-61
2022/06/21 03:43:13;;;;;;;8.88;4.90;;;;;;;12.91;67.41;101544.66;5056776;28;20048;-61
2022/06/21 03:45:41;;;;;;;6.65;5.25;;;;;;;12.87;67.06;101534.88;5056676;28;20029;-61
2022/06/21 03:48:15;;;;;;;7.55;4.88;;;;;;;12.86;67.07;101548.13;5056532;28;20036;-61
2022/06/21 03:50:47;;;;;;;10.00;5.10;;;;;;;12.91;66.88;101534.03;5056437;28;20104;-61
2022/06/21 03:53:16;;;;;;;;;;;;;;;13.06;64.80;101540.38;5056975;28;20035;-61
2022/06/21 03:55:53;;;;;;;8.80;4.70;;;;;;;13.00;65.89;101535.91;5056299;28;20380;-61
2022/06/21 03:58:42;;;;;;;7.78;5.60;;;;;;;12.92;66.81;101540.22;5056420;28;20025;-62
2022/06/21 04:01:22;;;;;;;10.60;5.43;;;;;;;12.70;67.57;101542.59;5056074;28;20395;-60
2022/06/21 04:03:59;;;;;;;8.50;5.20;;;;;;;12.64;68.27;101537.25;5056207;28;20047;-61
2022/06/21 04:06:33;;;;;;;11.77;5.68;;;;;;;12.70;68.92;101534.66;5056209;28;21169;-61
2022/06/21 04:09:09;;;;;;;8.13;5.25;;;;;;;12.82;68.06;101544.53;5056204;28;20033;-61
2022/06/21 04:11:49;;;;;;;12.98;5.95;;;;;;;12.70;68.27;101558.53;5056166;28;20029;-61
2022/06/21 04:14:40;;;;;;;10.00;5.32;;;;;;;12.68;68.08;101551.44;5056006;28;20049;-61
2022/06/21 04:17:25;;;;;;;12.27;8.10;;;;;;;12.81;69.06;101549.84;5055688;28;20028;-61
2022/06/21 04:19:58;;;;;;;11.15;6.32;;;;;;;12.99;68.93;101544.75;5055795;28;20087;-61
2022/06/21 04:22:33;;;;;;;10.50;6.28;;;;;;;12.95;68.21;101548.22;5055820;28;20028;-62
2022/06/21 04:25:15;;;;;;;8.77;6.10;;;;;;;12.98;68.64;101533.25;5055825;28;20027;-62
2022/06/21 04:27:59;;;;;;;10.70;6.30;;;;;;;13.05;68.83;101536.84;5054750;28;20060;-62
2022/06/21 04:30:54;;;;;;;10.55;6.38;;;;;;;13.20;68.07;101544.09;5055877;28;20106;-61
2022/06/21 04:33:28;;;;;;;10.55;6.93;;;;;;;13.34;68.88;101537.22;5055639;28;20029;-61
2022/06/21 04:36:19;;;;;;;12.40;6.45;;;;;;;13.46;67.95;101525.84;5055478;28;20367;-62
2022/06/21 04:38:55;;;;;;;12.73;7.32;;;;;;;13.63;68.27;101528.66;5053122;28;20041;-62
2022/06/21 04:41:22;;;;;;;9.85;6.10;;;;;;;13.73;68.26;101525.19;5055488;28;20585;-61
2022/06/21 04:44:08;;;;;;;9.70;6.05;;;;;;;13.77;68.02;101530.53;5055132;28;20032;-61
2022/06/21 04:47:06;;;;;;;13.63;7.07;;;;;;;13.85;68.15;101521.75;5055256;28;20035;-62
2022/06/21 04:49:37;;;;;;;13.23;6.95;;;;;;;13.90;68.47;101523.56;5055435;28;20509;-61
2022/06/21 04:52:03;;;;;;;11.17;6.67;;;;;;;13.93;68.18;101507.66;5055091;28;20050;-61
2022/06/21 04:54:32;;;;;;;12.55;6.63;;;;;;;13.97;68.38;101503.25;5055102;28;20282;-61
2022/06/21 04:57:21;;;;;;;15.07;6.68;;;;;;;14.03;68.50;101516.56;5054922;28;20479;-62
2022/06/21 04:59:49;;;;;;;13.50;6.93;;;;;;;14.06;68.53;101521.91;5055115;28;20108;-62
2022/06/21 05:02:55;;;;;;;15.02;7.20;;;;;;;14.14;68.35;101519.31;5055125;28;20479;-62
2022/06/21 05:05:25;;;;;;;11.07;6.68;;;;;;;14.24;68.29;101515.84;5042986;28;20163;-61
2022/06/21 05:07:58;;;;;;;10.38;6.75;;;;;;;14.33;68.39;101515.00;5054844;28;20040;-61
2022/06/21 05:10:28;;;;;;;13.95;6.43;;;;;;;14.40;67.70;101532.78;5055045;28;20485;-62
2022/06/21 05:12:55;;;;;;;11.98;6.72;;;;;;;14.43;67.96;101524.78;5054956;28;20418;-62
2022/06/21 05:15:24;;;;;;;12.38;6.97;;;;;;;14.48;68.03;101515.09;5054722;28;20402;-62
2022/06/21 05:18:14;;;;;;;10.85;6.50;;;;;;;14.55;67.89;101519.59;5054506;28;20462;-61
2022/06/21 05:20:50;;;;;;;14.05;6.60;;;;;;;14.64;68.02;101527.59;5054200;28;20040;-62
2022/06/21 05:23:18;;;;;;;13.20;6.38;;;;;;;14.77;67.55;101516.16;5054610;28;20530;-62
2022/06/21 05:25:45;;;;;;;12.27;6.78;;;;;;;14.87;67.44;101503.78;5054669;28;20104;-62
2022/06/21 05:28:22;;;;;;;13.30;6.93;;;;;;;14.90;66.82;101509.13;5054296;28;20580;-61
2022/06/21 05:30:54;;;;;;;12.95;6.55;;;;;;;15.00;67.01;101500.28;5054415;28;20037;-61
2022/06/21 05:33:20;;;;;;;;;;;;;;;15.19;66.13;101492.31;5054967;28;20388;-60
2022/06/21 05:35:46;;;;;;;12.07;6.30;;;;;;;15.22;67.27;101492.34;5054303;28;19913;-61
2022/06/21 05:38:19;;;;;;;13.90;6.53;;;;;;;15.28;65.85;101508.31;5053927;28;20299;-62
2022/06/21 05:41:30;;;;;;;10.55;5.93;;;;;;;15.40;66.00;101515.44;5054498;28;20029;-62
2022/06/21 05:44:29;;;;;;;13.30;6.10;;;;;;;15.58;65.06;101523.44;5054346;28;20391;-62
2022/06/21 05:47:01;;;;;;;11.75;6.22;;;;;;;15.61;65.28;101525.25;5040512;28;20518;-61
2022/06/21 05:49:31;;;;;;;9.57;5.55;;;;;;;15.80;64.64;101519.06;5054212;28;20040;-61
2022/06/21 05:52:00;;;;;;;10.82;5.75;;;;;;;15.97;64.47;101511.97;5054138;28;20036;-62
2022/06/21 05:54:34;;;;;;;9.18;5.07;;;;;;;16.17;64.41;101521.72;5054248;28;20033;-62
2022/06/21 05:57:04;;;;;;;12.55;4.38;;;;;;;16.27;62.18;101532.38;5053731;28;20036;-62
2022/06/21 05:59:29;;;;;;;10.68;5.15;;;;;;;16.37;62.46;101537.69;5053874;28;20035;-61
2022/06/21 06:02:01;;;;;;;9.38;4.70;;;;;;;16.46;62.70;101548.34;5054018;28;20100;-62
2022/06/21 06:04:36;;;;;;;10.57;4.30;;;;;;;16.50;60.37;101545.66;5053984;28;20112;-61
2022/06/21 06:07:04;;;;;;;9.65;4.43;;;;;;;16.66;61.67;101553.59;5053753;28;20433;-62
2022/06/21 06:09:38;;;;;;;15.18;4.50;;;;;;;16.80;61.31;101545.59;5053849;28;20032;-61
2022/06/21 06:12:22;;;;;;;11.45;4.15;;;;;;;16.94;60.43;101555.31;5054191;28;20033;-62
2022/06/21 06:15:23;;;;;;;6.60;3.78;;;;;;;16.93;59.53;101561.56;5053926;28;20421;-62
2022/06/21 06:17:59;;;;;;;7.15;3.72;;;;;;;16.99;59.65;101557.97;5031362;28;20383;-61
2022/06/21 06:20:29;;;;;;;9.23;4.20;;;;;;;17.09;59.33;101562.38;5053809;28;20032;-61
2022/06/21 06:23:19;;;;;;;12.63;4.30;;;;;;;17.23;59.33;101570.31;5053412;28;20461;-61
2022/06/21 06:25:50;;;;;;;8.95;3.90;;;;;;;17.45;58.25;101560.41;5053468;28;20033;-62
2022/06/21 06:28:44;;;;;;;7.88;3.90;;;;;;;17.73;58.71;101562.00;5053487;28;20045;-61
2022/06/21 06:31:15;;;;;;;8.70;3.72;;;;;;;17.90;57.65;101566.34;5035208;28;20037;-62
2022/06/21 06:33:45;;;;;;;8.13;3.60;;;;;;;18.15;55.88;101570.59;5053524;28;20054;-61
2022/06/21 06:36:16;;;;;;;6.43;3.38;;;;;;;18.22;54.87;101556.25;5053439;28;20124;-62
2022/06/21 06:38:42;;;;;;;9.50;3.65;;;;;;;18.26;54.59;101567.81;5053481;28;20039;-62
2022/06/21 06:41:16;;;;;;;8.05;3.03;;;;;;;18.38;54.38;101567.72;5053531;28;20021;-61
2022/06/21 06:43:53;;;;;;;8.73;3.30;;;;;;;18.52;54.21;101567.56;5053130;28;20032;-62
2022/06/21 06:46:31;;;;;;;14.13;3.40;;;;;;;18.56;54.23;101568.44;5053672;28;20351;-62
2022/06/21 06:49:12;;;;;;;11.55;3.58;;;;;;;18.60;53.54;101570.16;5053067;28;20029;-62
2022/06/21 06:52:01;;;;;;;6.85;3.13;;;;;;;18.69;53.09;101568.31;5052502;28;20493;-61
2022/06/21 06:54:33;;;;;;;9.77;3.38;;;;;;;18.82;53.18;101576.19;5048941;28;20029;-62
2022/06/21 06:57:09;;;;;;;11.17;3.20;;;;;;;19.00;52.63;101575.97;5053203;28;20064;-61
2022/06/21 06:59:36;;;;;;;7.90;3.25;;;;;;;18.89;52.72;101572.56;5053399;28;20137;-61
2022/06/21 07:02:15;;;;;;;6.45;3.30;;;;;;;19.09;52.67;101570.50;5053267;28;20033;-61
2022/06/21 07:04:45;;;;;;;9.60;3.40;;;;;;;19.27;51.25;101572.94;5052898;28;20031;-61
2022/06/21 07:07:37;;;;;;;7.13;3.38;;;;;;;19.59;50.88;101568.91;5053016;28;20025;-62
2022/06/21 07:10:09;;;;;;;9.68;4.20;;;;;;;19.78;49.78;101566.84;5053257;28;20025;-62
2022/06/21 07:12:34;;;;;;;11.10;3.60;;;;;;;19.84;48.94;101561.41;5053305;28;20029;-62
2022/06/21 07:15:00;;;;;;;11.93;3.90;;;;;;;19.92;49.13;101566.66;5053139;28;20026;-62
2022/06/21 07:17:40;;;;;;;9.32;3.60;;;;;;;19.86;49.64;101572.97;5052696;28;20421;-62
2022/06/21 07:20:21;;;;;;;12.88;3.90;;;;;;;19.84;49.65;101580.19;5052878;28;20483;-61
2022/06/21 07:22:46;;;;;;;9.77;3.78;;;;;;;19.88;48.73;101570.31;5052950;28;20033;-62
2022/06/21 07:25:21;;;;;;;9.82;3.75;;;;;;;20.04;49.36;101562.84;5052849;28;20025;-61
2022/06/21 07:27:52;;;;;;;10.55;3.70;;;;;;;20.05;48.16;101554.81;5052770;28;20041;-61
2022/06/21 07:30:18;;;;;;;6.10;3.40;;;;;;;20.03;48.96;101545.88;5053573;28;20025;-62
2022/06/21 07:32:53;;;;;;;9.27;3.72;;;;;;;20.24;48.29;101553.56;5052849;28;20051;-60
2022/06/21 07:35:26;;;;;;;9.65;4.13;;;;;;;20.47;47.60;101553.16;5053132;28;20095;-60
2022/06/21 07:38:04;;;;;;;7.25;3.95;;;;;;;20.50;47.79;101557.59;5052682;28;20029;-61
2022/06/21 07:40:38;;;;;;;12.40;4.43;;;;;;;20.61;47.45;101570.81;5052888;28;20487;-61
2022/06/21 07:43:11;;;;;;;10.13;3.90;;;;;;;20.76;46.48;101568.72;5052835;28;20056;-61
2022/06/21 07:45:57;;;;;;;7.78;3.78;;;;;;;20.97;46.33;101571.88;5052701;28;20498;-62
2022/06/21 07:48:29;;;;;;;9.43;3.53;;;;;;;20.75;47.55;101558.88;5052646;28;20021;-61
2022/06/21 07:51:04;;;;;;;9.57;4.95;;;;;;;20.87;45.92;101559.56;5052775;28;20066;-62
2022/06/21 07:53:39;;;;;;;9.35;3.83;;;;;;;20.95;46.05;101565.66;5052690;28;20079;-62
2022/06/21 07:56:10;;;;;;;12.45;3.70;;;;;;;21.08;46.07;101553.75;5052503;28;20442;-61
2022/06/21 07:58:58;;;;;;;9.43;3.58;;;;;;;21.22;46.30;101551.63;5052403;28;20061;-61
2022/06/21 08:07:24;;;;;;;8.43;3.60;;;;;;;22.19;42.40;101530.53;5056291;28;20044;-61
2022/06/21 08:09:59;;;;;;;9.68;3.88;;;;;;;22.47;41.77;101527.97;5056106;28;20028;-61
2022/06/21 08:12:25;;;;;;;8.85;3.30;;;;;;;22.88;41.51;101525.91;5056070;28;20025;-62
2022/06/21 08:14:50;;;;;;;8.70;3.80;;;;;;;22.93;41.34;101523.97;5056198;28;20477;-61
2022/06/21 08:17:59;;;;;;;7.93;3.42;;;;;;;22.89;40.91;101531.25;5055782;28;20060;-61
2022/06/21 08:20:28;;;;;;;7.28;3.13;;;;;;;22.77;40.25;101526.19;5033620;28;20065;-61
2022/06/21 08:23:08;;;;;;;10.25;3.25;;;;;;;22.66;41.58;101529.22;5051483;28;20045;-61
2022/06/21 08:25:41;;;;;;;6.40;3.28;;;;;;;22.63;40.33;101529.31;5055865;28;20033;-61
2022/06/21 08:28:12;;;;;;;7.93;3.10;;;;;;;22.66;41.48;101526.53;5055408;28;20053;-61
2022/06/21 08:30:48;;;;;;;9.13;3.42;;;;;;;22.82;39.75;101528.75;5055870;28;20046;-61
2022/06/21 08:33:23;;;;;;;7.65;3.25;;;;;;;22.71;40.70;101519.19;5055638;28;20478;-61
2022/06/21 08:36:01;;;;;;;8.98;3.42;;;;;;;22.71;39.30;101512.91;5055583;28;20029;-62
2022/06/21 08:38:36;;;;;;;8.80;3.30;;;;;;;22.96;39.47;101502.34;5055736;28;20109;-62
2022/06/21 08:44:19;;;;;;;8.57;3.37;;;;;;;22.90;39.75;101502.50;5055722;28;20036;-61
2022/06/21 08:47:00;;;;;;;5.40;2.97;;;;;;;22.94;40.21;101515.84;5055261;28;20282;-62
2022/06/21 08:49:54;;;;;;;8.07;3.40;;;;;;;22.93;39.44;101505.13;5055249;28;20364;-62
2022/06/21 08:52:45;;;;;;;9.20;3.00;;;;;;;22.96;39.95;101481.66;5055323;28;20029;-61
2022/06/21 08:55:43;;;;;;;6.78;2.90;;;;;;;22.90;39.50;101470.16;5050208;28;20059;-62
2022/06/21 08:58:23;;;;;;;8.55;2.80;;;;;;;22.75;38.93;101461.59;5031932;28;20114;-62
2022/06/21 09:00:55;;;;;;;7.90;3.22;;;;;;;;;;5055695;28;20025;-62
2022/06/21 09:03:39;;;;;;;;;;;;;;;22.60;40.02;101448.56;5055503;28;20100;-62
2022/06/21 09:06:11;;;;;;;9.10;3.40;;;;;;;22.34;39.88;101460.09;5055130;28;19913;-61
2022/06/21 09:09:07;;;;;;;9.13;3.40;;;;;;;22.35;40.69;101460.97;5054818;28;20479;-61
2022/06/21 09:12:04;;;;;;;12.25;4.50;;;;;;;22.36;38.51;101466.34;5055001;28;20389;-62
2022/06/21 09:14:35;;;;;;;7.07;2.90;;;;;;;22.38;39.68;101451.00;5054388;28;20090;-62
2022/06/21 09:17:00;;;;;;;10.63;2.90;;;;;;;22.24;40.27;101462.16;5054773;28;20028;-61
2022/06/21 09:19:26;;;;;;;7.82;3.05;;;;;;;22.47;40.38;101458.81;5055013;28;20497;-62
2022/06/21 09:22:13;;;;;;;6.50;3.38;;;;;;;22.99;40.01;101446.50;5055050;28;20055;-61
2022/06/21 09:24:40;;;;;;;10.05;3.83;;;;;;;23.29;38.46;101442.88;5054659;28;20028;-62
2022/06/21 09:27:18;;;;;;;9.98;4.00;;;;;;;23.60;39.16;101437.38;5054315;28;20490;-62
2022/06/21 09:29:49;;;;;;;21.83;4.30;;;;;;;24.04;39.62;101422.34;5054595;28;20032;-62
2022/06/21 09:32:36;;;;;;;12.05;3.95;;;;;;;24.51;36.57;101422.44;5054305;28;20502;-63
2022/06/21 09:35:05;;;;;;;7.38;3.50;;;;;;;24.88;34.93;101420.97;5054444;28;20115;-62
2022/06/21 09:37:34;;;;;;;13.65;3.50;;;;;;;25.24;34.46;101415.97;5054352;28;20024;-62
2022/06/21 09:40:11;;;;;;;7.68;3.85;;;;;;;25.60;33.37;101416.22;5054232;28;20048;-62
2022/06/21 09:42:55;;;;;;;9.13;3.58;;;;;;;25.79;34.15;101415.50;5052905;28;20029;-62
2022/06/21 09:45:51;;;;;;;9.77;3.67;;;;;;;25.99;34.47;101415.47;5054366;28;20048;-61
2022/06/21 09:48:33;;;;;;;10.07;3.70;;;;;;;26.12;33.77;101432.97;5053686;28;20036;-62
2022/06/21 09:51:13;;;;;;;8.80;3.75;;;;;;;26.36;33.62;101422.81;5053930;28;20553;-62
2022/06/21 09:54:03;;;;;;;8.20;3.85;;;;;;;26.36;34.14;101417.41;5054331;28;20478;-62
2022/06/21 09:56:43;;;;;;;13.10;3.75;;;;;;;26.59;33.20;101421.78;5053999;28;20035;-62
2022/06/21 09:59:47;;;;;;;8.52;3.70;;;;;;;26.43;32.29;101420.72;5054039;28;20437;-62
2022/06/21 10:02:19;;;;;;;14.75;3.70;;;;;;;25.87;33.48;101403.38;5053399;28;20040;-62
2022/06/21 10:05:10;;;;;;;22.45;4.82;;;;;;;25.64;33.81;101403.44;5053680;28;20035;-62
2022/06/21 10:07:49;;;;;;;6.00;3.25;;;;;;;25.44;34.63;101401.63;5053784;28;20545;-62
2022/06/21 10:10:40;;;;;;;8.43;3.28;;;;;;;25.20;34.47;101409.78;5054101;28;20025;-62
2022/06/21 10:13:32;;;;;;;10.57;3.55;;;;;;;25.13;34.04;101420.91;5053787;28;20035;-63
2022/06/21 10:16:39;;;;;;;7.47;3.40;;;;;;;25.06;33.88;101430.22;5053790;28;20051;-62
2022/06/21 10:19:11;;;;;;;9.38;3.50;;;;;;;24.90;35.01;101427.22;5053593;28;20104;-62
2022/06/21 10:21:50;;;;;;;13.80;3.70;;;;;;;24.92;35.03;101419.91;5053478;28;20035;-62
2022/06/21 10:24:42;;;;;;;19.63;4.47;;;;;;;24.99;34.44;101421.44;5052882;28;20021;-62
2022/06/21 10:27:10;;;;;;;;;;;;;;;25.11;34.57;101414.72;5053392;28;20045;-62
2022/06/21 10:29:56;;;;;;;6.55;3.47;;;;;;;24.92;35.63;101419.91;5053292;28;19912;-62
2022/06/21 10:32:33;;;;;;;11.75;3.55;;;;;;;24.90;35.78;101425.41;5053767;28;20031;-62
2022/06/21 10:35:06;;;;;;;8.40;3.90;;;;;;;24.72;35.04;101427.00;5053209;28;20025;-62
2022/06/21 10:37:40;;;;;;;9.40;3.78;;;;;;;24.77;35.03;101425.94;5053191;28;20481;-62
2022/06/21 10:40:34;;;;;;;9.25;3.80;;;;;;;25.01;34.85;101416.88;5053422;28;20511;-62
2022/06/21 10:43:10;;;;;;;9.35;3.90;;;;;;;24.87;35.26;101420.09;5053542;28;20024;-62
2022/06/21 10:45:50;;;;;;;10.43;4.05;;;;;;;25.06;35.45;101417.56;5053551;28;20028;-62
2022/06/21 10:49:06;;;;;;;8.48;3.80;;;;;;;25.15;35.15;101424.47;5053276;28;20052;-62
2022/06/21 10:52:04;;;;;;;8.15;3.78;;;;;;;25.07;35.52;101419.31;5011443;28;20084;-62
2022/06/21 10:54:42;;;;;;;10.27;3.88;;;;;;;24.85;35.10;101418.44;5011605;28;20149;-62
2022/06/21 10:57:25;;;;;;;8.82;3.80;;;;;;;24.80;35.84;101426.72;5043535;28;20043;-62
2022/06/21 11:02:51;;;;;;;8.68;3.60;;;;;;;24.77;36.41;101420.53;5053431;28;20056;-63
2022/06/21 11:05:27;;;;;;;8.25;3.88;;;;;;;24.85;35.00;101416.59;5053175;28;20024;-62
2022/06/21 11:08:07;;;;;;;8.70;3.75;;;;;;;25.05;35.83;101421.19;5053230;28;20082;-62
2022/06/21 11:10:43;;;;;;;14.93;4.15;;;;;;;25.09;35.62;101422.88;5053217;28;20437;-62
2022/06/21 11:13:14;;;;;;;12.63;3.95;;;;;;;24.94;35.46;101431.56;5053010;28;20100;-62
2022/06/21 11:15:48;;;;;;;10.70;4.32;;;;;;;25.07;34.48;101431.97;5053032;28;20025;-62
2022/06/21 11:18:51;;;;;;;13.93;4.07;;;;;;;24.97;35.31;101426.94;5053021;28;20033;-63
2022/06/21 11:21:25;;;;;;;16.40;4.32;;;;;;;25.13;35.07;101418.22;5052918;28;20386;-62
2022/06/21 11:23:58;;;;;;;18.08;4.53;;;;;;;24.94;35.06;101416.22;5052904;28;20064;-62
2022/06/21 11:26:42;;;;;;;17.15;4.47;;;;;;;24.97;35.61;101410.72;5052919;28;20390;-62
2022/06/21 11:29:32;;;;;;;11.20;4.05;;;;;;;24.93;35.02;101416.31;5052931;28;20033;-62
2022/06/21 11:32:03;;;;;;;8.45;3.70;;;;;;;24.99;34.14;101416.03;5052952;28;20051;-62
2022/06/21 11:34:40;;;;;;;7.47;3.75;;;;;;;24.97;34.35;101409.81;5052435;28;20164;-62
2022/06/21 11:37:24;;;;;;;7.82;3.80;;;;;;;24.86;34.51;101418.34;5054918;28;20443;-62
2022/06/21 11:40:18;;;;;;;6.93;3.60;;;;;;;24.61;35.15;101407.63;5056787;28;20427;-62
2022/06/21 11:42:55;;;;;;;7.00;3.42;;;;;;;24.82;36.02;101424.81;5056361;28;20475;-63
2022/06/21 11:45:45;;;;;;;13.00;4.40;;;;;;;24.64;34.83;101422.84;5056743;28;20025;-63
2022/06/21 11:48:34;;;;;;;9.50;3.65;;;;;;;24.60;34.96;101419.38;5056671;28;20098;-62
2022/06/21 11:51:09;;;;;;;10.30;3.70;;;;;;;24.58;35.05;101406.84;5056434;28;20371;-62
2022/06/21 11:53:47;;;;;;;6.05;3.72;;;;;;;24.56;34.43;101408.75;5056315;28;20048;-62
2022/06/21 11:56:33;;;;;;;6.88;3.70;;;;;;;24.46;35.03;101411.81;5056122;28;20107;-62
2022/06/21 11:59:15;;;;;;;8.55;3.42;;;;;;;24.68;34.96;101401.03;5056372;28;20397;-63
2022/06/21 12:02:02;;;;;;;;;;;;;;;24.93;33.77;101398.25;5056416;28;20036;-62
2022/06/21 12:04:39;;;;;;;12.20;3.80;;;;;;;24.98;33.39;101398.06;5056231;28;19912;-61
2022/06/21 12:07:16;;;;;;;9.30;3.80;;;;;;;25.09;32.98;101400.34;5056049;28;20482;-62
2022/06/21 12:09:56;;;;;;;7.22;3.80;;;;;;;25.21;34.13;101389.91;5056007;28;20057;-62
2022/06/21 12:12:35;;;;;;;8.50;3.70;;;;;;;25.28;34.47;101384.25;5055996;28;20036;-62
2022/06/21 12:15:19;;;;;;;18.67;4.32;;;;;;;25.32;34.12;101389.47;5055799;28;20025;-62
2022/06/21 12:17:57;;;;;;;8.10;3.47;;;;;;;25.33;33.49;101391.22;5055750;28;20037;-63
2022/06/21 12:20:37;;;;;;;6.25;3.38;;;;;;;25.29;32.92;101381.47;5055688;28;20056;-62
2022/06/21 12:23:15;;;;;;;9.95;3.30;;;;;;;25.34;32.61;101384.00;5055806;28;20433;-63